Terminal Aerodrome Forecast
Issued by NWS

Home | Current Version | Previous Version | Text Only | Print | Product List | Glossary On
Versions: 1 2 3 4 5 6 7 8 9 10 11 12 13
127
FTUS43 KGRR 251140
TAFBTL
TAF
KBTL 251140Z 2512/2612 18007KT P6SM SCT060 BKN250
     FM260300 18005KT 6SM -SHRA BR VCTS BKN060CB=

USA.gov is the U.S. government's official web portal to all federal, state and local government web resources and services.